sensor_id;sensor_type;location;lat;lon;timestamp;temperature;humidity
63771;DHT22;60282;43.862;18.430;2022-12-18T00:00:07;3.30;99.90
63771;DHT22;60282;43.862;18.430;2022-12-18T00:02:34;3.30;99.90
63771;DHT22;60282;43.862;18.430;2022-12-18T00:05:00;3.30;99.90
63771;DHT22;60282;43.862;18.430;2022-12-18T00:07:26;3.20;99.90
63771;DHT22;60282;43.862;18.430;2022-12-18T00:09:52;3.20;99.90
63771;DHT22;60282;43.862;18.430;2022-12-18T00:12:18;3.20;99.90
63771;DHT22;60282;43.862;18.430;2022-12-18T00:14:43;3.20;99.90
63771;DHT22;60282;43.862;18.430;2022-12-18T00:17:09;3.20;99.90
63771;DHT22;60282;43.862;18.430;2022-12-18T00:19:36;3.20;99.90
63771;DHT22;60282;43.862;18.430;2022-12-18T00:24:37;3.20;99.90
63771;DHT22;60282;43.862;18.430;2022-12-18T00:27:05;3.10;99.90
63771;DHT22;60282;43.862;18.430;2022-12-18T00:29:35;2.90;99.90
63771;DHT22;60282;43.862;18.430;2022-12-18T00:32:02;3.10;99.90
63771;DHT22;60282;43.862;18.430;2022-12-18T00:34:29;3.10;99.90
63771;DHT22;60282;43.862;18.430;2022-12-18T00:36:56;2.90;99.90
63771;DHT22;60282;43.862;18.430;2022-12-18T00:39:22;3.10;99.90
63771;DHT22;60282;43.862;18.430;2022-12-18T00:41:47;3.10;99.90
63771;DHT22;60282;43.862;18.430;2022-12-18T00:44:31;3.20;99.90
63771;DHT22;60282;43.862;18.430;2022-12-18T00:46:58;3.20;99.90
63771;DHT22;60282;43.862;18.430;2022-12-18T00:49:23;3.20;99.90
63771;DHT22;60282;43.862;18.430;2022-12-18T00:51:49;3.10;99.90
63771;DHT22;60282;43.862;18.430;2022-12-18T00:54:15;3.10;99.90
63771;DHT22;60282;43.862;18.430;2022-12-18T00:56:41;3.00;99.90
63771;DHT22;60282;43.862;18.430;2022-12-18T00:59:07;3.00;99.90
63771;DHT22;60282;43.862;18.430;2022-12-18T01:01:33;3.00;99.90
63771;DHT22;60282;43.862;18.430;2022-12-18T01:04:05;3.00;99.90
63771;DHT22;60282;43.862;18.430;2022-12-18T01:06:44;2.90;99.90
63771;DHT22;60282;43.862;18.430;2022-12-18T01:09:10;3.40;99.90
63771;DHT22;60282;43.862;18.430;2022-12-18T01:11:36;2.90;99.90
63771;DHT22;60282;43.862;18.430;2022-12-18T01:14:04;2.90;99.90
63771;DHT22;60282;43.862;18.430;2022-12-18T01:16:30;2.90;99.90
63771;DHT22;60282;43.862;18.430;2022-12-18T01:19:07;2.90;99.90
63771;DHT22;60282;43.862;18.430;2022-12-18T01:21:38;2.90;99.90
63771;DHT22;60282;43.862;18.430;2022-12-18T01:24:04;2.90;99.90
63771;DHT22;60282;43.862;18.430;2022-12-18T01:26:30;2.90;99.90
63771;DHT22;60282;43.862;18.430;2022-12-18T01:28:57;3.00;99.90
63771;DHT22;60282;43.862;18.430;2022-12-18T01:31:28;2.90;99.90
63771;DHT22;60282;43.862;18.430;2022-12-18T01:33:55;2.90;99.90
63771;DHT22;60282;43.862;18.430;2022-12-18T01:36:27;2.80;99.90
63771;DHT22;60282;43.862;18.430;2022-12-18T01:38:56;2.80;99.90
63771;DHT22;60282;43.862;18.430;2022-12-18T01:41:24;2.80;99.90
63771;DHT22;60282;43.862;18.430;2022-12-18T01:43:56;2.80;99.90
63771;DHT22;60282;43.862;18.430;2022-12-18T01:46:26;2.90;99.90
63771;DHT22;60282;43.862;18.430;2022-12-18T01:48:55;2.90;99.90
63771;DHT22;60282;43.862;18.430;2022-12-18T01:51:22;2.90;99.90
63771;DHT22;60282;43.862;18.430;2022-12-18T01:53:49;2.80;99.90
63771;DHT22;60282;43.862;18.430;2022-12-18T01:56:19;2.80;99.90
63771;DHT22;60282;43.862;18.430;2022-12-18T01:59:02;2.80;99.90
63771;DHT22;60282;43.862;18.430;2022-12-18T02:01:30;2.80;99.90
63771;DHT22;60282;43.862;18.430;2022-12-18T02:06:47;2.60;99.90
63771;DHT22;60282;43.862;18.430;2022-12-18T02:09:25;2.60;99.90
63771;DHT22;60282;43.862;18.430;2022-12-18T02:12:19;2.70;99.90
63771;DHT22;60282;43.862;18.430;2022-12-18T02:20:47;2.60;99.90
63771;DHT22;60282;43.862;18.430;2022-12-18T02:26:26;2.60;99.90
63771;DHT22;60282;43.862;18.430;2022-12-18T02:29:10;2.60;99.90
63771;DHT22;60282;43.862;18.430;2022-12-18T02:31:49;2.60;99.90
63771;DHT22;60282;43.862;18.430;2022-12-18T02:34:17;2.60;99.90
63771;DHT22;60282;43.862;18.430;2022-12-18T02:36:45;2.50;99.90
63771;DHT22;60282;43.862;18.430;2022-12-18T02:39:13;2.40;99.90
63771;DHT22;60282;43.862;18.430;2022-12-18T02:41:41;2.40;99.90
63771;DHT22;60282;43.862;18.430;2022-12-18T02:44:10;2.30;99.90
63771;DHT22;60282;43.862;18.430;2022-12-18T02:46:39;2.40;99.90
63771;DHT22;60282;43.862;18.430;2022-12-18T02:49:49;2.40;99.90
63771;DHT22;60282;43.862;18.430;2022-12-18T03:01:47;2.30;99.90
63771;DHT22;60282;43.862;18.430;2022-12-18T03:04:43;2.40;99.90
63771;DHT22;60282;43.862;18.430;2022-12-18T03:07:16;2.50;99.90
63771;DHT22;60282;43.862;18.430;2022-12-18T03:09:46;2.50;99.90
63771;DHT22;60282;43.862;18.430;2022-12-18T03:12:36;2.50;99.90
63771;DHT22;60282;43.862;18.430;2022-12-18T03:15:39;2.50;99.90
63771;DHT22;60282;43.862;18.430;2022-12-18T03:18:14;2.20;99.90
63771;DHT22;60282;43.862;18.430;2022-12-18T03:20:43;2.50;99.90
63771;DHT22;60282;43.862;18.430;2022-12-18T03:23:16;2.60;99.90
63771;DHT22;60282;43.862;18.430;2022-12-18T03:25:45;2.50;99.90
63771;DHT22;60282;43.862;18.430;2022-12-18T03:28:23;2.50;99.90
63771;DHT22;60282;43.862;18.430;2022-12-18T03:30:54;2.50;99.90
63771;DHT22;60282;43.862;18.430;2022-12-18T03:33:31;2.50;99.90
63771;DHT22;60282;43.862;18.430;2022-12-18T03:36:05;2.50;99.90
63771;DHT22;60282;43.862;18.430;2022-12-18T03:38:31;2.50;99.90
63771;DHT22;60282;43.862;18.430;2022-12-18T03:43:59;2.50;99.90
63771;DHT22;60282;43.862;18.430;2022-12-18T03:46:54;2.50;99.90
63771;DHT22;60282;43.862;18.430;2022-12-18T03:49:43;2.60;99.90
63771;DHT22;60282;43.862;18.430;2022-12-18T03:52:20;2.60;99.90
63771;DHT22;60282;43.862;18.430;2022-12-18T03:54:50;2.70;99.90
63771;DHT22;60282;43.862;18.430;2022-12-18T03:57:29;2.70;99.90
63771;DHT22;60282;43.862;18.430;2022-12-18T04:00:11;2.70;99.90
63771;DHT22;60282;43.862;18.430;2022-12-18T04:02:41;2.60;99.90
63771;DHT22;60282;43.862;18.430;2022-12-18T04:05:11;2.70;99.90
63771;DHT22;60282;43.862;18.430;2022-12-18T04:07:38;2.70;99.90
63771;DHT22;60282;43.862;18.430;2022-12-18T04:10:07;2.70;99.90
63771;DHT22;60282;43.862;18.430;2022-12-18T04:12:33;2.70;99.90
63771;DHT22;60282;43.862;18.430;2022-12-18T04:15:01;2.60;99.90
63771;DHT22;60282;43.862;18.430;2022-12-18T04:17:28;2.70;99.90
63771;DHT22;60282;43.862;18.430;2022-12-18T04:19:55;2.70;99.90
63771;DHT22;60282;43.862;18.430;2022-12-18T04:22:20;2.70;99.90
63771;DHT22;60282;43.862;18.430;2022-12-18T04:24:51;2.70;99.90
63771;DHT22;60282;43.862;18.430;2022-12-18T04:27:17;2.70;99.90
63771;DHT22;60282;43.862;18.430;2022-12-18T04:29:43;2.60;99.90
63771;DHT22;60282;43.862;18.430;2022-12-18T04:32:10;2.60;99.90
63771;DHT22;60282;43.862;18.430;2022-12-18T04:34:36;2.60;99.90
63771;DHT22;60282;43.862;18.430;2022-12-18T04:37:03;1.80;99.90
63771;DHT22;60282;43.862;18.430;2022-12-18T04:39:29;3.00;99.90
63771;DHT22;60282;43.862;18.430;2022-12-18T04:41:55;2.40;99.90
63771;DHT22;60282;43.862;18.430;2022-12-18T04:44:21;2.40;99.90
63771;DHT22;60282;43.862;18.430;2022-12-18T04:46:47;2.40;99.90
63771;DHT22;60282;43.862;18.430;2022-12-18T04:49:13;2.40;99.90
63771;DHT22;60282;43.862;18.430;2022-12-18T04:51:40;2.40;99.90
63771;DHT22;60282;43.862;18.430;2022-12-18T04:54:06;2.40;99.90
63771;DHT22;60282;43.862;18.430;2022-12-18T04:56:38;2.40;99.90
63771;DHT22;60282;43.862;18.430;2022-12-18T04:59:04;2.50;99.90
63771;DHT22;60282;43.862;18.430;2022-12-18T05:01:30;2.40;99.90
63771;DHT22;60282;43.862;18.430;2022-12-18T05:03:55;2.40;99.90
63771;DHT22;60282;43.862;18.430;2022-12-18T05:06:21;2.40;99.90
63771;DHT22;60282;43.862;18.430;2022-12-18T05:08:50;2.40;99.90
63771;DHT22;60282;43.862;18.430;2022-12-18T05:11:16;2.40;99.90
63771;DHT22;60282;43.862;18.430;2022-12-18T05:13:43;2.40;99.90
63771;DHT22;60282;43.862;18.430;2022-12-18T05:16:09;2.40;99.90
63771;DHT22;60282;43.862;18.430;2022-12-18T05:18:35;2.50;99.90
63771;DHT22;60282;43.862;18.430;2022-12-18T05:21:01;2.60;99.90
63771;DHT22;60282;43.862;18.430;2022-12-18T05:23:27;2.60;99.90
63771;DHT22;60282;43.862;18.430;2022-12-18T05:26:03;2.60;99.90
63771;DHT22;60282;43.862;18.430;2022-12-18T05:28:31;2.70;99.90
63771;DHT22;60282;43.862;18.430;2022-12-18T05:30:59;2.70;99.90
63771;DHT22;60282;43.862;18.430;2022-12-18T05:33:30;2.70;99.90
63771;DHT22;60282;43.862;18.430;2022-12-18T05:36:01;2.70;99.90
63771;DHT22;60282;43.862;18.430;2022-12-18T05:38:32;2.80;99.90
63771;DHT22;60282;43.862;18.430;2022-12-18T05:40:58;2.70;99.90
63771;DHT22;60282;43.862;18.430;2022-12-18T05:43:28;2.70;99.90
63771;DHT22;60282;43.862;18.430;2022-12-18T05:45:54;2.50;99.90
63771;DHT22;60282;43.862;18.430;2022-12-18T05:48:21;2.50;99.90
63771;DHT22;60282;43.862;18.430;2022-12-18T05:50:48;2.40;99.90
63771;DHT22;60282;43.862;18.430;2022-12-18T05:53:16;2.50;99.90
63771;DHT22;60282;43.862;18.430;2022-12-18T05:55:43;2.50;99.90
63771;DHT22;60282;43.862;18.430;2022-12-18T05:58:14;1.00;99.90
63771;DHT22;60282;43.862;18.430;2022-12-18T06:00:45;2.60;99.90
63771;DHT22;60282;43.862;18.430;2022-12-18T06:03:12;2.60;99.90
63771;DHT22;60282;43.862;18.430;2022-12-18T06:05:41;2.60;99.90
63771;DHT22;60282;43.862;18.430;2022-12-18T06:08:08;2.70;99.90
63771;DHT22;60282;43.862;18.430;2022-12-18T06:10:34;2.70;99.90
63771;DHT22;60282;43.862;18.430;2022-12-18T06:13:00;2.70;99.90
63771;DHT22;60282;43.862;18.430;2022-12-18T06:15:29;2.70;99.90
63771;DHT22;60282;43.862;18.430;2022-12-18T06:17:54;2.70;99.90
63771;DHT22;60282;43.862;18.430;2022-12-18T06:20:20;2.70;99.90
63771;DHT22;60282;43.862;18.430;2022-12-18T06:22:56;2.70;99.90
63771;DHT22;60282;43.862;18.430;2022-12-18T06:25:23;3.20;99.90
63771;DHT22;60282;43.862;18.430;2022-12-18T06:27:55;2.80;99.90
63771;DHT22;60282;43.862;18.430;2022-12-18T06:30:20;3.60;99.90
63771;DHT22;60282;43.862;18.430;2022-12-18T06:32:48;2.80;99.90
63771;DHT22;60282;43.862;18.430;2022-12-18T06:35:17;2.80;99.90
63771;DHT22;60282;43.862;18.430;2022-12-18T06:37:43;2.80;99.90
63771;DHT22;60282;43.862;18.430;2022-12-18T06:40:09;2.80;99.90
63771;DHT22;60282;43.862;18.430;2022-12-18T06:42:35;2.80;99.90
63771;DHT22;60282;43.862;18.430;2022-12-18T06:45:01;2.80;99.90
63771;DHT22;60282;43.862;18.430;2022-12-18T06:47:28;2.80;99.90
63771;DHT22;60282;43.862;18.430;2022-12-18T06:49:55;2.80;99.90
63771;DHT22;60282;43.862;18.430;2022-12-18T06:52:20;2.80;99.90
63771;DHT22;60282;43.862;18.430;2022-12-18T06:54:46;2.80;99.90
63771;DHT22;60282;43.862;18.430;2022-12-18T06:57:12;0.20;99.90
63771;DHT22;60282;43.862;18.430;2022-12-18T06:59:39;2.90;99.90
63771;DHT22;60282;43.862;18.430;2022-12-18T07:02:05;2.90;99.90
63771;DHT22;60282;43.862;18.430;2022-12-18T07:04:32;2.90;99.90
63771;DHT22;60282;43.862;18.430;2022-12-18T07:06:58;3.00;99.90
63771;DHT22;60282;43.862;18.430;2022-12-18T07:09:24;3.20;99.90
63771;DHT22;60282;43.862;18.430;2022-12-18T07:14:16;3.00;99.90
63771;DHT22;60282;43.862;18.430;2022-12-18T07:16:44;3.00;99.90
63771;DHT22;60282;43.862;18.430;2022-12-18T07:19:11;3.00;99.90
63771;DHT22;60282;43.862;18.430;2022-12-18T07:21:37;3.00;99.90
63771;DHT22;60282;43.862;18.430;2022-12-18T07:24:03;3.00;99.90
63771;DHT22;60282;43.862;18.430;2022-12-18T07:26:30;3.00;99.90
63771;DHT22;60282;43.862;18.430;2022-12-18T07:28:58;3.00;99.90
63771;DHT22;60282;43.862;18.430;2022-12-18T07:31:27;2.90;99.90
63771;DHT22;60282;43.862;18.430;2022-12-18T07:33:55;2.90;99.90
63771;DHT22;60282;43.862;18.430;2022-12-18T07:36:23;2.80;99.90
63771;DHT22;60282;43.862;18.430;2022-12-18T07:38:52;2.80;99.90
63771;DHT22;60282;43.862;18.430;2022-12-18T07:41:21;5.50;99.90
63771;DHT22;60282;43.862;18.430;2022-12-18T07:43:56;2.90;99.90
63771;DHT22;60282;43.862;18.430;2022-12-18T07:46:35;2.70;99.90
63771;DHT22;60282;43.862;18.430;2022-12-18T07:49:01;2.80;99.90
63771;DHT22;60282;43.862;18.430;2022-12-18T07:51:29;2.30;99.90
63771;DHT22;60282;43.862;18.430;2022-12-18T07:56:28;2.90;99.90
63771;DHT22;60282;43.862;18.430;2022-12-18T07:58:59;2.80;99.90
63771;DHT22;60282;43.862;18.430;2022-12-18T08:01:27;2.70;99.90
63771;DHT22;60282;43.862;18.430;2022-12-18T08:03:54;2.80;99.90
63771;DHT22;60282;43.862;18.430;2022-12-18T08:06:25;2.80;99.90
63771;DHT22;60282;43.862;18.430;2022-12-18T08:09:00;2.90;99.90
63771;DHT22;60282;43.862;18.430;2022-12-18T08:11:27;2.90;99.90
63771;DHT22;60282;43.862;18.430;2022-12-18T08:13:58;2.90;99.90
63771;DHT22;60282;43.862;18.430;2022-12-18T08:16:24;3.00;99.90
63771;DHT22;60282;43.862;18.430;2022-12-18T08:18:54;3.10;99.90
63771;DHT22;60282;43.862;18.430;2022-12-18T08:21:26;3.10;99.90
63771;DHT22;60282;43.862;18.430;2022-12-18T08:23:53;3.20;99.90
63771;DHT22;60282;43.862;18.430;2022-12-18T08:26:20;3.20;99.90
63771;DHT22;60282;43.862;18.430;2022-12-18T08:28:46;3.30;99.90
63771;DHT22;60282;43.862;18.430;2022-12-18T08:31:11;3.30;99.90
63771;DHT22;60282;43.862;18.430;2022-12-18T08:33:40;3.10;99.90
63771;DHT22;60282;43.862;18.430;2022-12-18T08:36:06;3.10;99.90
63771;DHT22;60282;43.862;18.430;2022-12-18T08:38:39;3.10;99.90
63771;DHT22;60282;43.862;18.430;2022-12-18T08:41:07;3.10;99.90
63771;DHT22;60282;43.862;18.430;2022-12-18T08:43:35;3.10;99.90
63771;DHT22;60282;43.862;18.430;2022-12-18T08:46:21;3.20;99.90
63771;DHT22;60282;43.862;18.430;2022-12-18T08:48:48;3.20;99.90
63771;DHT22;60282;43.862;18.430;2022-12-18T08:51:18;3.20;99.90
63771;DHT22;60282;43.862;18.430;2022-12-18T08:53:45;3.30;99.90
63771;DHT22;60282;43.862;18.430;2022-12-18T08:56:12;3.40;99.90
63771;DHT22;60282;43.862;18.430;2022-12-18T08:58:40;3.40;99.90
63771;DHT22;60282;43.862;18.430;2022-12-18T09:01:09;3.40;99.90
63771;DHT22;60282;43.862;18.430;2022-12-18T09:03:37;3.40;99.90
63771;DHT22;60282;43.862;18.430;2022-12-18T09:06:03;3.40;99.90
63771;DHT22;60282;43.862;18.430;2022-12-18T09:08:33;3.40;99.90
63771;DHT22;60282;43.862;18.430;2022-12-18T09:10:59;3.50;99.90
63771;DHT22;60282;43.862;18.430;2022-12-18T09:13:26;3.70;99.90
63771;DHT22;60282;43.862;18.430;2022-12-18T09:15:57;3.90;99.90
63771;DHT22;60282;43.862;18.430;2022-12-18T09:18:23;3.70;99.90
63771;DHT22;60282;43.862;18.430;2022-12-18T09:20:50;3.70;99.90
63771;DHT22;60282;43.862;18.430;2022-12-18T09:23:20;3.80;99.90
63771;DHT22;60282;43.862;18.430;2022-12-18T09:25:46;3.80;99.90
63771;DHT22;60282;43.862;18.430;2022-12-18T09:28:17;3.80;99.90
63771;DHT22;60282;43.862;18.430;2022-12-18T09:30:47;3.60;99.90
63771;DHT22;60282;43.862;18.430;2022-12-18T09:33:18;3.80;99.90
63771;DHT22;60282;43.862;18.430;2022-12-18T09:35:45;3.80;99.90
63771;DHT22;60282;43.862;18.430;2022-12-18T09:38:20;3.80;99.90
63771;DHT22;60282;43.862;18.430;2022-12-18T09:40:53;3.70;99.90
63771;DHT22;60282;43.862;18.430;2022-12-18T09:46:43;3.80;99.90
63771;DHT22;60282;43.862;18.430;2022-12-18T09:49:16;3.80;99.90
63771;DHT22;60282;43.862;18.430;2022-12-18T09:52:23;4.10;99.90
63771;DHT22;60282;43.862;18.430;2022-12-18T09:55:37;3.80;99.90
63771;DHT22;60282;43.862;18.430;2022-12-18T09:59:02;3.80;99.90
63771;DHT22;60282;43.862;18.430;2022-12-18T10:01:06;3.80;99.90
63771;DHT22;60282;43.862;18.430;2022-12-18T10:03:35;3.90;99.90
63771;DHT22;60282;43.862;18.430;2022-12-18T10:06:21;3.90;99.90
63771;DHT22;60282;43.862;18.430;2022-12-18T10:12:17;3.90;99.90
63771;DHT22;60282;43.862;18.430;2022-12-18T10:17:45;3.90;99.90
63771;DHT22;60282;43.862;18.430;2022-12-18T10:22:53;4.00;99.90
63771;DHT22;60282;43.862;18.430;2022-12-18T10:25:26;4.00;99.90
63771;DHT22;60282;43.862;18.430;2022-12-18T10:28:03;4.10;99.90
63771;DHT22;60282;43.862;18.430;2022-12-18T10:30:34;4.20;99.90
63771;DHT22;60282;43.862;18.430;2022-12-18T10:33:16;4.20;99.90
63771;DHT22;60282;43.862;18.430;2022-12-18T10:35:43;4.20;99.90
63771;DHT22;60282;43.862;18.430;2022-12-18T10:38:37;4.30;99.90
63771;DHT22;60282;43.862;18.430;2022-12-18T10:41:06;4.30;99.90
63771;DHT22;60282;43.862;18.430;2022-12-18T10:43:38;4.30;99.90
63771;DHT22;60282;43.862;18.430;2022-12-18T10:46:15;4.30;99.90
63771;DHT22;60282;43.862;18.430;2022-12-18T10:51:37;4.20;99.90
63771;DHT22;60282;43.862;18.430;2022-12-18T10:54:23;4.20;99.90
63771;DHT22;60282;43.862;18.430;2022-12-18T10:59:17;4.20;99.90
63771;DHT22;60282;43.862;18.430;2022-12-18T11:02:00;4.20;99.90
63771;DHT22;60282;43.862;18.430;2022-12-18T11:04:31;4.00;99.90
63771;DHT22;60282;43.862;18.430;2022-12-18T11:07:19;4.40;99.90
63771;DHT22;60282;43.862;18.430;2022-12-18T11:10:02;4.40;99.90
63771;DHT22;60282;43.862;18.430;2022-12-18T11:12:49;4.50;99.90
63771;DHT22;60282;43.862;18.430;2022-12-18T11:15:36;4.40;99.90
63771;DHT22;60282;43.862;18.430;2022-12-18T11:18:14;4.50;99.90
63771;DHT22;60282;43.862;18.430;2022-12-18T11:20:41;4.50;99.90
63771;DHT22;60282;43.862;18.430;2022-12-18T11:23:13;3.00;99.90
63771;DHT22;60282;43.862;18.430;2022-12-18T11:25:40;4.60;99.90
63771;DHT22;60282;43.862;18.430;2022-12-18T11:28:29;4.70;99.90
63771;DHT22;60282;43.862;18.430;2022-12-18T11:31:27;4.60;99.90
63771;DHT22;60282;43.862;18.430;2022-12-18T11:36:49;4.60;99.90
63771;DHT22;60282;43.862;18.430;2022-12-18T11:39:36;4.70;99.90
63771;DHT22;60282;43.862;18.430;2022-12-18T11:42:24;4.70;99.90
63771;DHT22;60282;43.862;18.430;2022-12-18T11:45:01;4.80;99.90
63771;DHT22;60282;43.862;18.430;2022-12-18T11:47:49;4.70;99.90
63771;DHT22;60282;43.862;18.430;2022-12-18T11:50:24;4.70;99.90
63771;DHT22;60282;43.862;18.430;2022-12-18T11:52:53;4.50;99.90
63771;DHT22;60282;43.862;18.430;2022-12-18T11:55:41;5.10;99.90
63771;DHT22;60282;43.862;18.430;2022-12-18T12:01:28;4.60;99.90
63771;DHT22;60282;43.862;18.430;2022-12-18T12:10:07;4.70;99.90
63771;DHT22;60282;43.862;18.430;2022-12-18T12:12:44;4.70;99.90
63771;DHT22;60282;43.862;18.430;2022-12-18T12:18:34;4.40;99.90
63771;DHT22;60282;43.862;18.430;2022-12-18T12:27:02;4.70;99.90
63771;DHT22;60282;43.862;18.430;2022-12-18T12:29:46;3.20;99.90
63771;DHT22;60282;43.862;18.430;2022-12-18T12:35:20;4.70;99.90
63771;DHT22;60282;43.862;18.430;2022-12-18T12:38:13;4.60;99.90
63771;DHT22;60282;43.862;18.430;2022-12-18T12:41:08;4.70;99.90
63771;DHT22;60282;43.862;18.430;2022-12-18T12:43:57;4.70;99.90
63771;DHT22;60282;43.862;18.430;2022-12-18T12:46:26;4.00;99.90
63771;DHT22;60282;43.862;18.430;2022-12-18T12:48:56;4.50;99.90
63771;DHT22;60282;43.862;18.430;2022-12-18T12:51:37;4.70;99.90
63771;DHT22;60282;43.862;18.430;2022-12-18T12:54:15;4.70;99.90
63771;DHT22;60282;43.862;18.430;2022-12-18T13:00:03;4.70;99.90
63771;DHT22;60282;43.862;18.430;2022-12-18T13:05:46;4.80;99.90
63771;DHT22;60282;43.862;18.430;2022-12-18T13:08:28;4.80;99.90
63771;DHT22;60282;43.862;18.430;2022-12-18T13:10:57;4.80;99.90
63771;DHT22;60282;43.862;18.430;2022-12-18T13:13:56;4.90;99.90
63771;DHT22;60282;43.862;18.430;2022-12-18T13:16:24;4.80;99.90
63771;DHT22;60282;43.862;18.430;2022-12-18T13:19:01;4.80;99.90
63771;DHT22;60282;43.862;18.430;2022-12-18T13:21:32;4.80;99.90
63771;DHT22;60282;43.862;18.430;2022-12-18T13:24:20;4.80;99.90
63771;DHT22;60282;43.862;18.430;2022-12-18T13:26:48;4.60;99.90
63771;DHT22;60282;43.862;18.430;2022-12-18T13:29:41;4.60;99.90
63771;DHT22;60282;43.862;18.430;2022-12-18T13:32:28;4.50;99.90
63771;DHT22;60282;43.862;18.430;2022-12-18T13:37:55;4.50;99.90
63771;DHT22;60282;43.862;18.430;2022-12-18T13:51:24;4.60;99.90
63771;DHT22;60282;43.862;18.430;2022-12-18T13:54:05;4.70;99.90
63771;DHT22;60282;43.862;18.430;2022-12-18T13:56:47;4.70;99.90
63771;DHT22;60282;43.862;18.430;2022-12-18T13:59:25;4.70;99.90
63771;DHT22;60282;43.862;18.430;2022-12-18T14:01:59;4.70;99.90
63771;DHT22;60282;43.862;18.430;2022-12-18T14:04:41;4.70;99.90
63771;DHT22;60282;43.862;18.430;2022-12-18T14:07:24;4.60;99.90
63771;DHT22;60282;43.862;18.430;2022-12-18T14:09:52;4.60;99.90
63771;DHT22;60282;43.862;18.430;2022-12-18T14:12:25;4.60;99.90
63771;DHT22;60282;43.862;18.430;2022-12-18T14:15:41;4.50;99.90
63771;DHT22;60282;43.862;18.430;2022-12-18T14:18:32;4.50;99.90
63771;DHT22;60282;43.862;18.430;2022-12-18T14:21:17;4.50;99.90
63771;DHT22;60282;43.862;18.430;2022-12-18T14:24:13;4.40;99.90
63771;DHT22;60282;43.862;18.430;2022-12-18T14:26:42;5.00;99.90
63771;DHT22;60282;43.862;18.430;2022-12-18T14:29:28;4.40;99.90
63771;DHT22;60282;43.862;18.430;2022-12-18T14:32:16;4.40;99.90
63771;DHT22;60282;43.862;18.430;2022-12-18T14:34:50;5.00;99.90
63771;DHT22;60282;43.862;18.430;2022-12-18T14:37:30;4.40;99.90
63771;DHT22;60282;43.862;18.430;2022-12-18T14:40:05;4.40;99.90
63771;DHT22;60282;43.862;18.430;2022-12-18T14:42:34;4.40;99.90
63771;DHT22;60282;43.862;18.430;2022-12-18T14:51:20;4.30;99.90
63771;DHT22;60282;43.862;18.430;2022-12-18T14:54:14;4.20;99.90
63771;DHT22;60282;43.862;18.430;2022-12-18T14:57:01;4.10;99.90
63771;DHT22;60282;43.862;18.430;2022-12-18T14:59:33;4.50;99.90
63771;DHT22;60282;43.862;18.430;2022-12-18T15:02:22;4.10;99.90
63771;DHT22;60282;43.862;18.430;2022-12-18T15:05:21;4.10;99.90
63771;DHT22;60282;43.862;18.430;2022-12-18T15:07:53;4.10;99.90
63771;DHT22;60282;43.862;18.430;2022-12-18T15:10:33;4.10;99.90
63771;DHT22;60282;43.862;18.430;2022-12-18T15:15:48;4.20;99.90
63771;DHT22;60282;43.862;18.430;2022-12-18T15:18:28;4.20;99.90
63771;DHT22;60282;43.862;18.430;2022-12-18T15:21:00;7.50;99.90
63771;DHT22;60282;43.862;18.430;2022-12-18T15:23:52;4.30;99.90
63771;DHT22;60282;43.862;18.430;2022-12-18T15:26:21;4.30;99.90
63771;DHT22;60282;43.862;18.430;2022-12-18T15:28:53;4.30;99.90
63771;DHT22;60282;43.862;18.430;2022-12-18T15:36:29;3.60;99.90
63771;DHT22;60282;43.862;18.430;2022-12-18T15:39:02;4.40;99.90
63771;DHT22;60282;43.862;18.430;2022-12-18T15:41:34;4.20;99.90
63771;DHT22;60282;43.862;18.430;2022-12-18T15:44:00;4.30;99.90
63771;DHT22;60282;43.862;18.430;2022-12-18T15:46:31;4.30;99.90
63771;DHT22;60282;43.862;18.430;2022-12-18T15:48:57;4.50;99.90
63771;DHT22;60282;43.862;18.430;2022-12-18T15:54:08;4.90;99.90
63771;DHT22;60282;43.862;18.430;2022-12-18T15:56:39;4.20;99.90
63771;DHT22;60282;43.862;18.430;2022-12-18T15:59:26;4.30;99.90
63771;DHT22;60282;43.862;18.430;2022-12-18T16:01:53;4.30;99.90
63771;DHT22;60282;43.862;18.430;2022-12-18T16:04:26;4.30;99.90
63771;DHT22;60282;43.862;18.430;2022-12-18T16:09:18;4.40;99.90
63771;DHT22;60282;43.862;18.430;2022-12-18T16:12:04;4.40;99.90
63771;DHT22;60282;43.862;18.430;2022-12-18T16:14:39;4.30;99.90
63771;DHT22;60282;43.862;18.430;2022-12-18T16:17:09;4.30;99.90
63771;DHT22;60282;43.862;18.430;2022-12-18T16:19:36;4.30;99.90
63771;DHT22;60282;43.862;18.430;2022-12-18T16:22:03;4.20;99.90
63771;DHT22;60282;43.862;18.430;2022-12-18T16:24:32;4.40;99.90
63771;DHT22;60282;43.862;18.430;2022-12-18T16:26:59;4.40;99.90
63771;DHT22;60282;43.862;18.430;2022-12-18T16:29:27;4.00;99.90
63771;DHT22;60282;43.862;18.430;2022-12-18T16:31:58;4.30;99.90
63771;DHT22;60282;43.862;18.430;2022-12-18T16:34:26;4.20;99.90
63771;DHT22;60282;43.862;18.430;2022-12-18T16:36:58;4.20;99.90
63771;DHT22;60282;43.862;18.430;2022-12-18T16:39:27;4.10;99.90
63771;DHT22;60282;43.862;18.430;2022-12-18T16:42:06;4.10;99.90
63771;DHT22;60282;43.862;18.430;2022-12-18T16:44:35;4.10;99.90
63771;DHT22;60282;43.862;18.430;2022-12-18T16:47:01;4.10;99.90
63771;DHT22;60282;43.862;18.430;2022-12-18T16:49:29;4.10;99.90
63771;DHT22;60282;43.862;18.430;2022-12-18T16:51:57;4.10;99.90
63771;DHT22;60282;43.862;18.430;2022-12-18T16:54:26;4.10;99.90
63771;DHT22;60282;43.862;18.430;2022-12-18T16:56:55;4.10;99.90
63771;DHT22;60282;43.862;18.430;2022-12-18T16:59:22;4.10;99.90
63771;DHT22;60282;43.862;18.430;2022-12-18T17:01:51;4.10;99.90
63771;DHT22;60282;43.862;18.430;2022-12-18T17:04:23;4.70;99.90
63771;DHT22;60282;43.862;18.430;2022-12-18T17:09:37;4.10;99.90
63771;DHT22;60282;43.862;18.430;2022-12-18T17:12:06;4.10;99.90
63771;DHT22;60282;43.862;18.430;2022-12-18T17:14:35;4.20;99.90
63771;DHT22;60282;43.862;18.430;2022-12-18T17:17:03;4.20;99.90
63771;DHT22;60282;43.862;18.430;2022-12-18T17:19:29;3.30;99.90
63771;DHT22;60282;43.862;18.430;2022-12-18T17:21:57;4.20;99.90
63771;DHT22;60282;43.862;18.430;2022-12-18T17:24:23;4.30;99.90
63771;DHT22;60282;43.862;18.430;2022-12-18T17:26:49;4.30;99.90
63771;DHT22;60282;43.862;18.430;2022-12-18T17:29:17;4.30;99.90
63771;DHT22;60282;43.862;18.430;2022-12-18T17:31:47;4.30;99.90
63771;DHT22;60282;43.862;18.430;2022-12-18T17:34:15;4.30;99.90
63771;DHT22;60282;43.862;18.430;2022-12-18T17:36:41;4.30;99.90
63771;DHT22;60282;43.862;18.430;2022-12-18T17:39:07;4.30;99.90
63771;DHT22;60282;43.862;18.430;2022-12-18T17:41:33;4.20;99.90
63771;DHT22;60282;43.862;18.430;2022-12-18T17:44:05;4.30;99.90
63771;DHT22;60282;43.862;18.430;2022-12-18T17:46:32;4.30;99.90
63771;DHT22;60282;43.862;18.430;2022-12-18T17:49:00;4.30;99.90
63771;DHT22;60282;43.862;18.430;2022-12-18T17:51:27;4.30;99.90
63771;DHT22;60282;43.862;18.430;2022-12-18T17:53:53;4.30;99.90
63771;DHT22;60282;43.862;18.430;2022-12-18T17:56:20;4.20;99.90